Danville, Kansas
Current Conditions -  °F | °C
As of 9:53 AM on Friday 19 Dec 2014 (Local Time) from KICT Reporting Station
Haze Haze  
Wind Chill: 26°   Ceiling: 700
Heat Index: 32°   Visibility: 5mi
Dew Point: 29°   Wind: 6mph
Humidity: 88%   Direction: 160°SSE
Pressure: 30.26"   Gusts: NA
Location:  37.29°N, 97.89°W
Report Text: KICT 191553Z 16005KT 5SM BR BKN007 OVC017 00/M02 A3026 RMK AO2 SLP259 T00001017 $
Loading
Personal Weather Stations






























Interactive Weather Map New forecast layout! Learn more

10-Day Weather Forecast

Advertisements
Track Severe Weather on mobile